sensor_id;sensor_type;location;lat;lon;timestamp;pressure;altitude;pressure_sealevel;temperature;humidity
22333;BME280;11334;36.986;-121.936;2022-11-23T00:01:15;101536.00;;;16.74;57.67
22333;BME280;11334;36.986;-121.936;2022-11-23T00:03:43;101522.47;;;16.68;58.05
22333;BME280;11334;36.986;-121.936;2022-11-23T00:06:10;101519.34;;;16.64;58.37
22333;BME280;11334;36.986;-121.936;2022-11-23T00:08:37;101521.03;;;16.57;58.13
22333;BME280;11334;36.986;-121.936;2022-11-23T00:11:03;101515.38;;;16.52;58.25
22333;BME280;11334;36.986;-121.936;2022-11-23T00:13:30;101524.09;;;16.54;58.59
22333;BME280;11334;36.986;-121.936;2022-11-23T00:15:56;101532.28;;;16.53;58.69
22333;BME280;11334;36.986;-121.936;2022-11-23T00:18:22;101528.97;;;16.51;58.70
22333;BME280;11334;36.986;-121.936;2022-11-23T00:20:48;101541.84;;;16.47;58.90
22333;BME280;11334;36.986;-121.936;2022-11-23T00:23:14;101544.88;;;16.44;59.44
22333;BME280;11334;36.986;-121.936;2022-11-23T00:25:44;101542.19;;;16.44;59.48
22333;BME280;11334;36.986;-121.936;2022-11-23T00:28:11;101540.03;;;16.40;59.94
22333;BME280;11334;36.986;-121.936;2022-11-23T00:30:37;101535.22;;;16.36;59.92
22333;BME280;11334;36.986;-121.936;2022-11-23T00:33:04;101526.91;;;16.31;60.20
22333;BME280;11334;36.986;-121.936;2022-11-23T00:35:30;101526.03;;;16.30;60.24
22333;BME280;11334;36.986;-121.936;2022-11-23T00:37:56;101523.72;;;16.27;60.43
22333;BME280;11334;36.986;-121.936;2022-11-23T00:40:22;101533.13;;;16.23;60.27
22333;BME280;11334;36.986;-121.936;2022-11-23T00:42:49;101529.78;;;16.21;60.41
22333;BME280;11334;36.986;-121.936;2022-11-23T00:45:15;101527.78;;;16.15;60.68
22333;BME280;11334;36.986;-121.936;2022-11-23T00:47:41;101532.78;;;16.11;60.73
22333;BME280;11334;36.986;-121.936;2022-11-23T00:50:07;101536.97;;;16.05;60.70
22333;BME280;11334;36.986;-121.936;2022-11-23T00:52:34;101549.69;;;15.95;60.71
22333;BME280;11334;36.986;-121.936;2022-11-23T00:55:00;101561.22;;;15.96;61.02
22333;BME280;11334;36.986;-121.936;2022-11-23T00:57:26;101559.25;;;15.90;61.14
22333;BME280;11334;36.986;-121.936;2022-11-23T00:59:52;101568.59;;;15.86;61.26
22333;BME280;11334;36.986;-121.936;2022-11-23T01:02:18;101561.13;;;15.81;61.44
22333;BME280;11334;36.986;-121.936;2022-11-23T01:04:45;101558.13;;;15.77;61.50
22333;BME280;11334;36.986;-121.936;2022-11-23T01:07:11;101563.97;;;15.72;61.71
22333;BME280;11334;36.986;-121.936;2022-11-23T01:09:37;101555.09;;;15.64;61.98
22333;BME280;11334;36.986;-121.936;2022-11-23T01:12:03;101561.28;;;15.56;62.10
22333;BME280;11334;36.986;-121.936;2022-11-23T01:14:29;101547.28;;;15.47;62.24
22333;BME280;11334;36.986;-121.936;2022-11-23T01:16:56;101551.44;;;15.49;61.92
22333;BME280;11334;36.986;-121.936;2022-11-23T01:19:22;101550.28;;;15.44;61.69
22333;BME280;11334;36.986;-121.936;2022-11-23T01:21:49;101547.47;;;15.37;61.79
22333;BME280;11334;36.986;-121.936;2022-11-23T01:24:17;101541.81;;;15.32;62.20
22333;BME280;11334;36.986;-121.936;2022-11-23T01:26:44;101550.13;;;15.29;61.89
22333;BME280;11334;36.986;-121.936;2022-11-23T01:29:11;101545.63;;;15.22;61.41
22333;BME280;11334;36.986;-121.936;2022-11-23T01:31:38;101535.63;;;15.16;60.04
22333;BME280;11334;36.986;-121.936;2022-11-23T01:34:06;101547.44;;;15.06;60.75
22333;BME280;11334;36.986;-121.936;2022-11-23T01:36:34;101532.72;;;14.94;60.29
22333;BME280;11334;36.986;-121.936;2022-11-23T01:39:02;101558.59;;;14.93;60.29
22333;BME280;11334;36.986;-121.936;2022-11-23T01:41:34;101561.09;;;14.95;60.25
22333;BME280;11334;36.986;-121.936;2022-11-23T01:44:23;101554.06;;;14.78;60.57
22333;BME280;11334;36.986;-121.936;2022-11-23T01:46:49;101558.03;;;14.74;60.24
22333;BME280;11334;36.986;-121.936;2022-11-23T01:49:16;101570.56;;;14.74;59.65
22333;BME280;11334;36.986;-121.936;2022-11-23T01:51:45;101574.72;;;14.68;60.23
22333;BME280;11334;36.986;-121.936;2022-11-23T01:54:33;101577.16;;;14.54;59.73
22333;BME280;11334;36.986;-121.936;2022-11-23T01:57:10;101583.50;;;14.53;59.36
22333;BME280;11334;36.986;-121.936;2022-11-23T01:59:37;101578.44;;;14.42;59.62
22333;BME280;11334;36.986;-121.936;2022-11-23T02:02:04;101596.28;;;14.42;59.95
22333;BME280;11334;36.986;-121.936;2022-11-23T02:04:36;101581.41;;;14.31;59.63
22333;BME280;11334;36.986;-121.936;2022-11-23T02:07:04;101580.94;;;14.36;59.76
22333;BME280;11334;36.986;-121.936;2022-11-23T02:09:31;101581.22;;;14.33;59.33
22333;BME280;11334;36.986;-121.936;2022-11-23T02:11:58;101589.53;;;14.22;59.11
22333;BME280;11334;36.986;-121.936;2022-11-23T02:14:26;101580.34;;;14.17;59.57
22333;BME280;11334;36.986;-121.936;2022-11-23T02:16:52;101587.28;;;14.10;59.36
22333;BME280;11334;36.986;-121.936;2022-11-23T02:28:35;101609.22;;;13.79;59.61
22333;BME280;11334;36.986;-121.936;2022-11-23T02:31:03;101613.63;;;13.70;59.58
22333;BME280;11334;36.986;-121.936;2022-11-23T02:33:29;101606.59;;;13.61;59.69
22333;BME280;11334;36.986;-121.936;2022-11-23T02:35:58;101601.81;;;13.48;59.53
22333;BME280;11334;36.986;-121.936;2022-11-23T02:38:31;101599.16;;;13.48;59.33
22333;BME280;11334;36.986;-121.936;2022-11-23T02:40:58;101600.06;;;13.39;59.72
22333;BME280;11334;36.986;-121.936;2022-11-23T02:43:25;101593.09;;;13.38;58.45
22333;BME280;11334;36.986;-121.936;2022-11-23T02:46:02;101605.78;;;13.44;58.18
22333;BME280;11334;36.986;-121.936;2022-11-23T02:48:29;101603.59;;;13.39;57.29
22333;BME280;11334;36.986;-121.936;2022-11-23T02:50:55;101605.00;;;13.34;57.44
22333;BME280;11334;36.986;-121.936;2022-11-23T02:53:21;101604.63;;;13.29;58.26
22333;BME280;11334;36.986;-121.936;2022-11-23T02:55:48;101606.78;;;13.26;57.58
22333;BME280;11334;36.986;-121.936;2022-11-23T02:58:14;101605.72;;;13.19;57.25
22333;BME280;11334;36.986;-121.936;2022-11-23T03:00:40;101616.66;;;13.16;58.34
22333;BME280;11334;36.986;-121.936;2022-11-23T03:03:06;101597.13;;;13.07;58.29
22333;BME280;11334;36.986;-121.936;2022-11-23T03:05:33;101610.66;;;13.14;58.70
22333;BME280;11334;36.986;-121.936;2022-11-23T03:07:59;101611.09;;;13.09;59.02
22333;BME280;11334;36.986;-121.936;2022-11-23T03:10:25;101610.97;;;13.11;58.06
22333;BME280;11334;36.986;-121.936;2022-11-23T03:12:55;101618.31;;;12.99;58.94
22333;BME280;11334;36.986;-121.936;2022-11-23T03:15:22;101622.94;;;12.80;60.18
22333;BME280;11334;36.986;-121.936;2022-11-23T03:17:49;101626.66;;;12.87;59.78
22333;BME280;11334;36.986;-121.936;2022-11-23T03:20:16;101625.31;;;12.83;59.71
22333;BME280;11334;36.986;-121.936;2022-11-23T03:22:42;101636.25;;;12.80;59.87
22333;BME280;11334;36.986;-121.936;2022-11-23T03:25:08;101634.41;;;12.81;60.04
22333;BME280;11334;36.986;-121.936;2022-11-23T03:27:37;101643.38;;;12.80;59.45
22333;BME280;11334;36.986;-121.936;2022-11-23T03:30:04;101643.66;;;12.77;59.96
22333;BME280;11334;36.986;-121.936;2022-11-23T03:32:30;101644.94;;;12.73;60.41
22333;BME280;11334;36.986;-121.936;2022-11-23T03:34:56;101642.84;;;12.67;60.49
22333;BME280;11334;36.986;-121.936;2022-11-23T03:37:22;101650.00;;;12.66;61.02
22333;BME280;11334;36.986;-121.936;2022-11-23T03:39:50;101647.13;;;12.60;60.33
22333;BME280;11334;36.986;-121.936;2022-11-23T03:42:16;101655.22;;;12.59;60.32
22333;BME280;11334;36.986;-121.936;2022-11-23T03:44:43;101649.50;;;12.54;60.47
22333;BME280;11334;36.986;-121.936;2022-11-23T03:47:09;101645.13;;;12.35;61.20
22333;BME280;11334;36.986;-121.936;2022-11-23T03:49:36;101662.13;;;12.42;60.83
22333;BME280;11334;36.986;-121.936;2022-11-23T03:52:03;101658.81;;;12.40;60.28
22333;BME280;11334;36.986;-121.936;2022-11-23T03:54:29;101664.69;;;12.34;60.24
22333;BME280;11334;36.986;-121.936;2022-11-23T03:56:55;101661.72;;;12.37;60.36
22333;BME280;11334;36.986;-121.936;2022-11-23T03:59:21;101672.56;;;12.27;60.42
22333;BME280;11334;36.986;-121.936;2022-11-23T04:01:47;101666.84;;;12.22;60.79
22333;BME280;11334;36.986;-121.936;2022-11-23T04:04:14;101656.66;;;12.08;60.81
22333;BME280;11334;36.986;-121.936;2022-11-23T04:06:40;101662.25;;;12.14;60.38
22333;BME280;11334;36.986;-121.936;2022-11-23T04:09:06;101666.88;;;12.12;59.72
22333;BME280;11334;36.986;-121.936;2022-11-23T04:11:32;101673.31;;;12.10;59.76
22333;BME280;11334;36.986;-121.936;2022-11-23T04:13:59;101667.16;;;12.09;59.47
22333;BME280;11334;36.986;-121.936;2022-11-23T04:16:25;101668.69;;;12.02;60.07
22333;BME280;11334;36.986;-121.936;2022-11-23T04:18:51;101670.66;;;12.00;59.53
22333;BME280;11334;36.986;-121.936;2022-11-23T04:21:17;101673.19;;;12.02;59.53
22333;BME280;11334;36.986;-121.936;2022-11-23T04:23:43;101648.47;;;11.83;59.32
22333;BME280;11334;36.986;-121.936;2022-11-23T04:26:09;101677.97;;;11.99;58.54
22333;BME280;11334;36.986;-121.936;2022-11-23T04:28:36;101688.19;;;11.84;59.29
22333;BME280;11334;36.986;-121.936;2022-11-23T04:31:02;101686.91;;;11.88;58.81
22333;BME280;11334;36.986;-121.936;2022-11-23T04:33:28;101692.78;;;11.82;59.29
22333;BME280;11334;36.986;-121.936;2022-11-23T04:35:56;101683.16;;;11.63;59.43
22333;BME280;11334;36.986;-121.936;2022-11-23T04:38:22;101678.25;;;11.58;60.39
22333;BME280;11334;36.986;-121.936;2022-11-23T04:40:48;101678.84;;;11.62;59.54
22333;BME280;11334;36.986;-121.936;2022-11-23T04:43:15;101683.72;;;11.47;60.76
22333;BME280;11334;36.986;-121.936;2022-11-23T04:45:41;101690.16;;;11.45;60.45
22333;BME280;11334;36.986;-121.936;2022-11-23T04:48:07;101694.88;;;11.51;59.53
22333;BME280;11334;36.986;-121.936;2022-11-23T04:50:33;101692.81;;;11.54;59.35
22333;BME280;11334;36.986;-121.936;2022-11-23T04:53:00;101693.22;;;11.50;59.99
22333;BME280;11334;36.986;-121.936;2022-11-23T04:55:26;101694.88;;;11.51;59.63
22333;BME280;11334;36.986;-121.936;2022-11-23T04:57:52;101683.31;;;11.42;59.42
22333;BME280;11334;36.986;-121.936;2022-11-23T05:00:18;101693.34;;;11.48;59.38
22333;BME280;11334;36.986;-121.936;2022-11-23T05:02:45;101676.28;;;11.32;60.03
22333;BME280;11334;36.986;-121.936;2022-11-23T05:05:11;101687.59;;;11.25;60.57
22333;BME280;11334;36.986;-121.936;2022-11-23T05:07:37;101693.03;;;11.33;59.90
22333;BME280;11334;36.986;-121.936;2022-11-23T05:10:04;101690.50;;;11.31;60.40
22333;BME280;11334;36.986;-121.936;2022-11-23T05:12:30;101698.34;;;11.23;60.12
22333;BME280;11334;36.986;-121.936;2022-11-23T05:14:56;101696.66;;;11.22;60.33
22333;BME280;11334;36.986;-121.936;2022-11-23T05:17:22;101698.34;;;11.23;59.86
22333;BME280;11334;36.986;-121.936;2022-11-23T05:19:49;101697.19;;;11.16;60.21
22333;BME280;11334;36.986;-121.936;2022-11-23T05:22:15;101715.50;;;11.19;60.33
22333;BME280;11334;36.986;-121.936;2022-11-23T05:24:41;101705.34;;;11.24;60.48
22333;BME280;11334;36.986;-121.936;2022-11-23T05:27:07;101718.41;;;11.16;60.72
22333;BME280;11334;36.986;-121.936;2022-11-23T05:29:33;101708.78;;;11.15;60.27
22333;BME280;11334;36.986;-121.936;2022-11-23T05:32:00;101706.81;;;11.08;59.93
22333;BME280;11334;36.986;-121.936;2022-11-23T05:34:26;101716.19;;;11.12;59.77
22333;BME280;11334;36.986;-121.936;2022-11-23T05:36:52;101726.09;;;11.10;59.83
22333;BME280;11334;36.986;-121.936;2022-11-23T05:39:18;101725.25;;;11.09;59.99
22333;BME280;11334;36.986;-121.936;2022-11-23T05:41:45;101726.06;;;11.01;59.97
22333;BME280;11334;36.986;-121.936;2022-11-23T05:44:11;101714.72;;;10.89;61.20
22333;BME280;11334;36.986;-121.936;2022-11-23T05:46:37;101715.97;;;10.85;60.60
22333;BME280;11334;36.986;-121.936;2022-11-23T05:49:03;101720.59;;;10.93;60.10
22333;BME280;11334;36.986;-121.936;2022-11-23T05:51:30;101723.09;;;10.94;60.37
22333;BME280;11334;36.986;-121.936;2022-11-23T05:53:56;101723.09;;;10.85;60.80
22333;BME280;11334;36.986;-121.936;2022-11-23T05:56:23;101710.63;;;10.76;60.74
22333;BME280;11334;36.986;-121.936;2022-11-23T05:58:49;101720.69;;;10.73;61.11
22333;BME280;11334;36.986;-121.936;2022-11-23T06:01:15;101716.09;;;10.84;59.74
22333;BME280;11334;36.986;-121.936;2022-11-23T06:03:42;101711.06;;;10.81;60.04
22333;BME280;11334;36.986;-121.936;2022-11-23T06:06:08;101717.59;;;10.68;61.20
22333;BME280;11334;36.986;-121.936;2022-11-23T06:08:34;101722.47;;;10.63;61.56
22333;BME280;11334;36.986;-121.936;2022-11-23T06:11:00;101726.94;;;10.72;61.12
22333;BME280;11334;36.986;-121.936;2022-11-23T06:13:27;101724.28;;;10.72;60.69
22333;BME280;11334;36.986;-121.936;2022-11-23T06:15:53;101719.38;;;10.58;61.39
22333;BME280;11334;36.986;-121.936;2022-11-23T06:18:19;101717.22;;;10.52;61.71
22333;BME280;11334;36.986;-121.936;2022-11-23T06:20:45;101711.22;;;10.50;61.19
22333;BME280;11334;36.986;-121.936;2022-11-23T06:23:11;101726.00;;;10.43;61.70
22333;BME280;11334;36.986;-121.936;2022-11-23T06:25:38;101712.19;;;10.49;61.72
22333;BME280;11334;36.986;-121.936;2022-11-23T06:28:04;101716.97;;;10.55;61.43
22333;BME280;11334;36.986;-121.936;2022-11-23T06:30:31;101719.75;;;10.53;61.53
22333;BME280;11334;36.986;-121.936;2022-11-23T06:32:57;101722.09;;;10.47;61.12
22333;BME280;11334;36.986;-121.936;2022-11-23T06:35:27;101724.28;;;10.42;61.64
22333;BME280;11334;36.986;-121.936;2022-11-23T06:37:53;101730.31;;;10.44;61.54
22333;BME280;11334;36.986;-121.936;2022-11-23T06:40:20;101727.38;;;10.47;61.49
22333;BME280;11334;36.986;-121.936;2022-11-23T06:42:46;101724.88;;;10.45;61.30
22333;BME280;11334;36.986;-121.936;2022-11-23T06:45:13;101741.03;;;10.42;61.30
22333;BME280;11334;36.986;-121.936;2022-11-23T06:47:39;101737.53;;;10.42;60.89
22333;BME280;11334;36.986;-121.936;2022-11-23T06:50:06;101742.94;;;10.31;61.75
22333;BME280;11334;36.986;-121.936;2022-11-23T06:52:32;101738.91;;;10.37;62.08
22333;BME280;11334;36.986;-121.936;2022-11-23T06:54:58;101741.88;;;10.23;62.98
22333;BME280;11334;36.986;-121.936;2022-11-23T06:57:24;101733.25;;;10.21;62.73
22333;BME280;11334;36.986;-121.936;2022-11-23T06:59:51;101736.38;;;10.06;62.97
22333;BME280;11334;36.986;-121.936;2022-11-23T07:02:17;101740.88;;;10.14;62.82
22333;BME280;11334;36.986;-121.936;2022-11-23T07:04:43;101750.63;;;10.14;62.86
22333;BME280;11334;36.986;-121.936;2022-11-23T07:07:09;101761.22;;;10.14;62.89
22333;BME280;11334;36.986;-121.936;2022-11-23T07:09:36;101752.75;;;10.00;63.06
22333;BME280;11334;36.986;-121.936;2022-11-23T07:12:02;101762.75;;;9.96;63.16
22333;BME280;11334;36.986;-121.936;2022-11-23T07:14:29;101752.25;;;10.06;62.20
22333;BME280;11334;36.986;-121.936;2022-11-23T07:16:55;101753.28;;;10.14;61.99
22333;BME280;11334;36.986;-121.936;2022-11-23T07:19:21;101756.75;;;10.14;61.80
22333;BME280;11334;36.986;-121.936;2022-11-23T07:21:47;101755.00;;;10.04;62.69
22333;BME280;11334;36.986;-121.936;2022-11-23T07:24:14;101746.72;;;9.98;62.63
22333;BME280;11334;36.986;-121.936;2022-11-23T07:26:40;101742.34;;;10.08;61.87
22333;BME280;11334;36.986;-121.936;2022-11-23T07:29:06;101746.03;;;10.16;61.39
22333;BME280;11334;36.986;-121.936;2022-11-23T07:31:32;101739.06;;;10.15;61.78
22333;BME280;11334;36.986;-121.936;2022-11-23T07:33:58;101756.19;;;10.11;61.98
22333;BME280;11334;36.986;-121.936;2022-11-23T07:36:24;101750.69;;;10.03;62.24
22333;BME280;11334;36.986;-121.936;2022-11-23T07:38:51;101755.00;;;10.04;62.23
22333;BME280;11334;36.986;-121.936;2022-11-23T07:41:17;101757.28;;;10.09;62.08
22333;BME280;11334;36.986;-121.936;2022-11-23T07:43:43;101756.88;;;10.13;61.79
22333;BME280;11334;36.986;-121.936;2022-11-23T07:46:09;101757.13;;;10.10;62.13
22333;BME280;11334;36.986;-121.936;2022-11-23T07:48:35;101744.22;;;9.96;62.72
22333;BME280;11334;36.986;-121.936;2022-11-23T07:51:01;101753.91;;;10.07;62.03
22333;BME280;11334;36.986;-121.936;2022-11-23T07:53:28;101745.00;;;10.08;62.13
22333;BME280;11334;36.986;-121.936;2022-11-23T07:55:55;101749.53;;;9.96;62.07
22333;BME280;11334;36.986;-121.936;2022-11-23T07:58:22;101745.78;;;9.99;62.33
22333;BME280;11334;36.986;-121.936;2022-11-23T08:00:48;101751.97;;;9.88;62.95
22333;BME280;11334;36.986;-121.936;2022-11-23T08:03:15;101743.41;;;9.85;62.18
22333;BME280;11334;36.986;-121.936;2022-11-23T08:05:41;101751.97;;;9.88;62.90
22333;BME280;11334;36.986;-121.936;2022-11-23T08:08:07;101759.97;;;9.98;62.04
22333;BME280;11334;36.986;-121.936;2022-11-23T08:10:34;101765.25;;;9.98;61.66
22333;BME280;11334;36.986;-121.936;2022-11-23T08:13:03;101769.00;;;9.95;61.75
22333;BME280;11334;36.986;-121.936;2022-11-23T08:15:30;101765.59;;;9.73;62.42
22333;BME280;11334;36.986;-121.936;2022-11-23T08:17:57;101757.72;;;9.93;61.57
22333;BME280;11334;36.986;-121.936;2022-11-23T08:20:24;101751.34;;;9.96;61.83
22333;BME280;11334;36.986;-121.936;2022-11-23T08:22:50;101743.56;;;9.83;62.60
22333;BME280;11334;36.986;-121.936;2022-11-23T08:25:16;101736.00;;;9.79;62.72
22333;BME280;11334;36.986;-121.936;2022-11-23T08:27:42;101735.63;;;9.83;62.39
22333;BME280;11334;36.986;-121.936;2022-11-23T08:30:09;101733.81;;;9.84;61.96
22333;BME280;11334;36.986;-121.936;2022-11-23T08:32:35;101730.34;;;9.73;62.68
22333;BME280;11334;36.986;-121.936;2022-11-23T08:35:01;101723.97;;;9.75;62.38
22333;BME280;11334;36.986;-121.936;2022-11-23T08:37:27;101731.66;;;9.78;62.23
22333;BME280;11334;36.986;-121.936;2022-11-23T08:39:54;101751.88;;;9.79;62.52
22333;BME280;11334;36.986;-121.936;2022-11-23T08:42:20;101754.25;;;9.82;62.21
22333;BME280;11334;36.986;-121.936;2022-11-23T08:44:46;101744.56;;;9.72;62.98
22333;BME280;11334;36.986;-121.936;2022-11-23T08:47:12;101754.53;;;9.68;62.94
22333;BME280;11334;36.986;-121.936;2022-11-23T08:49:38;101756.44;;;9.77;62.30
22333;BME280;11334;36.986;-121.936;2022-11-23T08:52:05;101744.75;;;9.79;62.42
22333;BME280;11334;36.986;-121.936;2022-11-23T08:54:31;101746.31;;;9.82;62.22
22333;BME280;11334;36.986;-121.936;2022-11-23T08:56:57;101746.88;;;9.65;62.94
22333;BME280;11334;36.986;-121.936;2022-11-23T08:59:24;101747.13;;;9.62;63.31
22333;BME280;11334;36.986;-121.936;2022-11-23T09:01:50;101756.16;;;9.60;63.70
22333;BME280;11334;36.986;-121.936;2022-11-23T09:04:16;101753.25;;;9.63;62.99
22333;BME280;11334;36.986;-121.936;2022-11-23T09:06:42;101744.22;;;9.65;62.89
22333;BME280;11334;36.986;-121.936;2022-11-23T09:09:08;101741.16;;;9.49;63.91
22333;BME280;11334;36.986;-121.936;2022-11-23T09:11:35;101748.59;;;9.55;63.77
22333;BME280;11334;36.986;-121.936;2022-11-23T09:14:01;101743.94;;;9.48;63.78
22333;BME280;11334;36.986;-121.936;2022-11-23T09:16:27;101745.28;;;9.43;64.05
22333;BME280;11334;36.986;-121.936;2022-11-23T09:18:55;101746.78;;;9.56;63.56
22333;BME280;11334;36.986;-121.936;2022-11-23T09:21:21;101741.09;;;9.60;63.59
22333;BME280;11334;36.986;-121.936;2022-11-23T09:23:47;101736.19;;;9.56;63.23
22333;BME280;11334;36.986;-121.936;2022-11-23T09:26:13;101749.22;;;9.48;63.66
22333;BME280;11334;36.986;-121.936;2022-11-23T09:28:40;101732.88;;;9.43;63.16
22333;BME280;11334;36.986;-121.936;2022-11-23T09:31:06;101740.78;;;9.54;63.74
22333;BME280;11334;36.986;-121.936;2022-11-23T09:33:32;101744.53;;;9.51;63.52
22333;BME280;11334;36.986;-121.936;2022-11-23T09:36:00;101743.81;;;9.49;63.59
22333;BME280;11334;36.986;-121.936;2022-11-23T09:38:27;101747.19;;;9.41;64.16
22333;BME280;11334;36.986;-121.936;2022-11-23T09:41:45;101746.25;;;9.42;63.98
22333;BME280;11334;36.986;-121.936;2022-11-23T09:51:28;101746.16;;;9.32;64.61
22333;BME280;11334;36.986;-121.936;2022-11-23T09:53:59;101739.16;;;9.31;64.31
22333;BME280;11334;36.986;-121.936;2022-11-23T09:56:33;101738.06;;;9.34;63.97
22333;BME280;11334;36.986;-121.936;2022-11-23T10:02:01;101728.53;;;9.22;65.13
22333;BME280;11334;36.986;-121.936;2022-11-23T10:04:33;101726.09;;;9.30;64.40
22333;BME280;11334;36.986;-121.936;2022-11-23T10:07:23;101724.28;;;9.30;64.43
22333;BME280;11334;36.986;-121.936;2022-11-23T10:10:09;101733.19;;;9.29;64.57
22333;BME280;11334;36.986;-121.936;2022-11-23T10:12:50;101733.41;;;9.26;64.26
22333;BME280;11334;36.986;-121.936;2022-11-23T10:24:16;101735.75;;;8.98;65.22
22333;BME280;11334;36.986;-121.936;2022-11-23T10:26:48;101743.56;;;8.89;66.15
22333;BME280;11334;36.986;-121.936;2022-11-23T10:29:30;101743.94;;;8.84;66.46
22333;BME280;11334;36.986;-121.936;2022-11-23T10:31:58;101739.75;;;8.93;65.61
22333;BME280;11334;36.986;-121.936;2022-11-23T10:36:57;101739.72;;;9.04;65.35
22333;BME280;11334;36.986;-121.936;2022-11-23T10:39:25;101730.84;;;8.94;65.95
22333;BME280;11334;36.986;-121.936;2022-11-23T10:41:53;101720.78;;;8.88;65.96
22333;BME280;11334;36.986;-121.936;2022-11-23T10:44:37;101729.13;;;9.04;65.82
22333;BME280;11334;36.986;-121.936;2022-11-23T10:47:04;101715.47;;;8.99;65.59
22333;BME280;11334;36.986;-121.936;2022-11-23T10:49:32;101725.19;;;8.98;65.63
22333;BME280;11334;36.986;-121.936;2022-11-23T10:52:31;101731.34;;;8.88;66.43
22333;BME280;11334;36.986;-121.936;2022-11-23T10:55:00;101726.91;;;8.78;66.78
22333;BME280;11334;36.986;-121.936;2022-11-23T10:57:31;101711.63;;;8.92;65.61
22333;BME280;11334;36.986;-121.936;2022-11-23T11:02:26;101713.44;;;8.91;65.69
22333;BME280;11334;36.986;-121.936;2022-11-23T11:07:54;101728.09;;;8.95;65.71
22333;BME280;11334;36.986;-121.936;2022-11-23T11:10:43;101713.56;;;8.90;65.89
22333;BME280;11334;36.986;-121.936;2022-11-23T11:13:22;101727.00;;;8.98;65.95
22333;BME280;11334;36.986;-121.936;2022-11-23T11:16:02;101713.34;;;8.82;65.88
22333;BME280;11334;36.986;-121.936;2022-11-23T11:18:31;101731.09;;;8.91;66.16
22333;BME280;11334;36.986;-121.936;2022-11-23T11:21:01;101727.47;;;8.92;65.86
22333;BME280;11334;36.986;-121.936;2022-11-23T11:23:28;101739.59;;;8.94;65.93
22333;BME280;11334;36.986;-121.936;2022-11-23T11:26:07;101718.63;;;8.82;65.92
22333;BME280;11334;36.986;-121.936;2022-11-23T11:28:41;101722.81;;;8.84;65.90
22333;BME280;11334;36.986;-121.936;2022-11-23T11:31:29;101732.56;;;8.73;66.92
22333;BME280;11334;36.986;-121.936;2022-11-23T11:36:45;101737.84;;;8.73;67.04
22333;BME280;11334;36.986;-121.936;2022-11-23T11:39:23;101734.13;;;8.76;66.65
22333;BME280;11334;36.986;-121.936;2022-11-23T11:41:51;101743.34;;;8.81;66.53
22333;BME280;11334;36.986;-121.936;2022-11-23T11:44:22;101729.91;;;8.73;66.93
22333;BME280;11334;36.986;-121.936;2022-11-23T11:49:47;101727.28;;;8.73;66.50
22333;BME280;11334;36.986;-121.936;2022-11-23T11:52:20;101728.94;;;8.74;66.40
22333;BME280;11334;36.986;-121.936;2022-11-23T11:54:55;101726.91;;;8.67;67.01
22333;BME280;11334;36.986;-121.936;2022-11-23T11:57:32;101733.53;;;8.72;66.42
22333;BME280;11334;36.986;-121.936;2022-11-23T12:00:02;101729.31;;;8.59;66.71
22333;BME280;11334;36.986;-121.936;2022-11-23T12:02:50;101738.94;;;8.60;67.17
22333;BME280;11334;36.986;-121.936;2022-11-23T12:05:34;101728.84;;;8.54;67.55
22333;BME280;11334;36.986;-121.936;2022-11-23T12:10:58;101716.72;;;8.41;68.30
22333;BME280;11334;36.986;-121.936;2022-11-23T12:13:28;101732.81;;;8.49;67.84
22333;BME280;11334;36.986;-121.936;2022-11-23T12:19:05;101714.41;;;8.47;68.25
22333;BME280;11334;36.986;-121.936;2022-11-23T12:35:31;101702.78;;;8.39;68.66
22333;BME280;11334;36.986;-121.936;2022-11-23T12:38:13;101710.59;;;8.40;68.67
22333;BME280;11334;36.986;-121.936;2022-11-23T12:54:56;101700.38;;;8.47;68.19
22333;BME280;11334;36.986;-121.936;2022-11-23T12:57:35;101708.91;;;8.39;68.33
22333;BME280;11334;36.986;-121.936;2022-11-23T13:00:22;101706.03;;;8.42;68.20
22333;BME280;11334;36.986;-121.936;2022-11-23T13:05:39;101713.72;;;8.45;68.42
22333;BME280;11334;36.986;-121.936;2022-11-23T13:08:22;101708.81;;;8.41;68.60
22333;BME280;11334;36.986;-121.936;2022-11-23T13:13:53;101700.41;;;8.36;68.34
22333;BME280;11334;36.986;-121.936;2022-11-23T13:16:37;101696.78;;;8.37;68.46
22333;BME280;11334;36.986;-121.936;2022-11-23T13:22:23;101698.81;;;8.22;69.19
22333;BME280;11334;36.986;-121.936;2022-11-23T13:25:23;101703.38;;;8.31;69.31
22333;BME280;11334;36.986;-121.936;2022-11-23T13:30:37;101696.66;;;8.17;69.44
22333;BME280;11334;36.986;-121.936;2022-11-23T13:40:41;101679.94;;;8.05;69.58
22333;BME280;11334;36.986;-121.936;2022-11-23T13:48:43;101688.81;;;8.04;70.38
22333;BME280;11334;36.986;-121.936;2022-11-23T13:51:10;101686.16;;;8.04;70.33
22333;BME280;11334;36.986;-121.936;2022-11-23T13:53:41;101685.84;;;8.09;70.00
22333;BME280;11334;36.986;-121.936;2022-11-23T13:56:34;101702.53;;;8.20;69.19
22333;BME280;11334;36.986;-121.936;2022-11-23T13:59:27;101696.41;;;8.09;68.99
22333;BME280;11334;36.986;-121.936;2022-11-23T14:04:38;101721.88;;;7.97;70.85
22333;BME280;11334;36.986;-121.936;2022-11-23T14:07:23;101716.28;;;8.02;70.82
22333;BME280;11334;36.986;-121.936;2022-11-23T14:10:17;101708.25;;;8.03;70.42
22333;BME280;11334;36.986;-121.936;2022-11-23T14:12:49;101711.72;;;8.04;70.46
22333;BME280;11334;36.986;-121.936;2022-11-23T14:15:29;101699.59;;;8.01;70.08